Airfield :
LOGIN :

Register | Disclaimer

   EN    FR    IT 

 










Legend :    VFR   Marginal VFR   IFR   Intensive IFR   Very Intensive IFR
Visi :
Ceiling :
>= 8 km
>= 3000ft
5 to 8 km
1000 to 3000 ft
1500m to 5 km
500 to 1000 ft
800 to 1500m
200 to 500 ft
< 800m
< 200 ft
Symbols :   Thunderstorms  Fog  Heavy snow  Heavy precipitations  Wind > 20 kt
SIGMETs :     Misc.  Thunderstorms  Icing  Turbulence  Mountain Waves  Volcanic Ashes






- Airport Elevation : 374 ft
- IATA code : LIS


LPPT - Lisboa Portela

CURRENT METAR :
  • 170930Z 25010KT 7000 -RADZ FEW008 BKN010 15/14 Q1018 RERA

EXPIRED METARs :
  • 170900Z 26011KT 9999 VCSH BKN012 15/14 Q1018
  • 170830Z 27008KT 240V300 9999 -RADZ FEW012 SCT022 BKN038 15/13 Q1018
  • 170800Z 25009KT 9999 FEW014 SCT028 15/13 Q1017
  • 170730Z 25009KT 9999 FEW014 SCT026 15/13 Q1017
  • 170700Z 26008KT 220V280 9999 FEW014 BKN028 15/13 Q1017

TAF TAF LPPT
Valid from the 17 at 06:00 until the 18 at 12:00 UTC


170500Z 1706/1812 29012KT 9999 SCT012 BKN030
TEMPO 1706/1719 5000 RADZ BR SCT004 BKN008
PROB30
TEMPO 1706/1711 2000 DZRA BR SCT002 BKN005
BECMG 1719/1722 34010KT FEW025



MET'MAP, your aeronautical weather chart ! - Copyright ORBIFLY December 2007 - Disclaimer

ORBIFLY MET'MAP TEAM :

Programming & Development : Alexandra Zaïnal
Concept & Development : Baudouin d'Aumeries
Co-Development & Prog : Marc-Olivier Méhu
Technical & hardware support : Manuel Goepfert

Contact : metmap@orbifly.com




SOURCES & CREDITS :

   NOAA